Time;durP1;ratioP1;P1;durP2;ratioP2;P2;SDS_P1;SDS_P2;PMS_P1;PMS_P2;Temp;Humidity;BMP_temperature;BMP_pressure;BME280_temperature;BME280_humidity;BME280_pressure;Samples;Min_cycle;Max_cycle;Signal;HPM_P1;HPM_P2
2022/10/02 00:01:56;;;;;;;1.80;1.67;;;;;;;6.64;100.00;96315.03;6127850;23;20420;-77
2022/10/02 00:04:40;;;;;;;4.47;1.67;;;;;;;7.00;100.00;96338.56;6126958;23;20404;-77
2022/10/02 00:07:10;;;;;;;3.80;1.43;;;;;;;7.16;100.00;96336.31;6127163;23;20379;-77
2022/10/02 00:09:42;;;;;;;4.40;2.50;;;;;;;7.17;100.00;96348.38;6153238;23;20376;-77
2022/10/02 00:12:15;;;;;;;2.03;1.83;;;;;;;7.25;100.00;96353.66;6127101;23;20407;-77
2022/10/02 00:14:45;;;;;;;12.73;3.00;;;;;;;7.47;100.00;96352.78;6153215;23;20368;-77
2022/10/02 00:17:21;;;;;;;4.40;1.80;;;;;;;7.45;100.00;96354.97;6153258;23;20475;-77
2022/10/02 00:19:52;;;;;;;2.10;1.73;;;;;;;6.98;100.00;96325.72;6126764;23;20450;-77
2022/10/02 00:22:22;;;;;;;2.77;2.57;;;;;;;7.31;100.00;96352.44;6127392;23;20368;-77
2022/10/02 00:24:59;;;;;;;1.83;1.73;;;;;;;7.42;100.00;96366.09;6127076;23;20400;-77
2022/10/02 00:27:59;;;;;;;2.50;2.30;;;;;;;6.92;100.00;96368.19;6102577;23;20943;-77
2022/10/02 00:30:32;;;;;;;2.00;1.70;;;;;;;6.68;100.00;96358.03;6153398;23;20419;-77
2022/10/02 00:33:28;;;;;;;2.10;1.90;;;;;;;6.86;100.00;96370.19;6153203;23;20372;-77
2022/10/02 00:35:59;;;;;;;3.37;1.80;;;;;;;6.57;100.00;96333.06;6153090;23;20823;-77
2022/10/02 00:38:35;;;;;;;4.23;2.10;;;;;;;6.93;100.00;96380.25;6102535;23;20910;-77
2022/10/02 00:41:08;;;;;;;2.33;2.13;;;;;;;6.87;100.00;96379.63;6127085;23;20510;-77
2022/10/02 00:43:56;;;;;;;2.77;1.90;;;;;;;6.69;100.00;96352.47;6127116;23;20722;-77
2022/10/02 00:46:39;;;;;;;5.40;2.17;;;;;;;6.90;100.00;96386.13;6153117;23;20372;-77
2022/10/02 00:49:15;;;;;;;1.60;1.50;;;;;;;6.93;100.00;96380.25;6153221;23;20410;-76
2022/10/02 00:52:08;;;;;;;2.73;1.87;;;;;;;6.96;100.00;96390.19;6153213;23;20372;-77
2022/10/02 00:54:47;;;;;;;2.10;2.00;;;;;;;6.94;100.00;96398.34;6153054;23;20367;-78
2022/10/02 00:57:32;;;;;;;2.30;1.80;;;;;;;6.94;100.00;96390.47;6126826;23;20490;-77
2022/10/02 01:00:16;;;;;;;4.20;1.40;;;;;;;6.92;100.00;96399.72;6126572;23;20768;-77
2022/10/02 01:02:48;;;;;;;2.37;2.17;;;;;;;6.93;100.00;96398.66;6127222;23;20398;-77
2022/10/02 01:05:36;;;;;;;3.03;1.90;;;;;;;6.94;100.00;96366.81;6127092;23;20827;-77
2022/10/02 01:08:04;;;;;;;4.90;2.10;;;;;;;7.19;100.00;96396.94;6038845;23;20419;-77
2022/10/02 01:10:33;;;;;;;1.90;1.73;;;;;;;7.15;100.00;96395.22;6015025;23;20413;-77
2022/10/02 01:13:00;;;;;;;2.23;1.83;;;;;;;6.91;100.00;96370.03;6038926;23;20719;-77
2022/10/02 01:15:31;;;;;;;2.43;1.60;;;;;;;6.86;100.00;96369.41;6062844;23;20439;-77
2022/10/02 01:17:58;;;;;;;3.80;2.00;;;;;;;6.95;100.00;96399.91;6063592;23;20442;-77
2022/10/02 01:20:46;;;;;;;4.30;2.10;;;;;;;6.97;100.00;96403.03;6064788;23;20831;-77
2022/10/02 01:23:18;;;;;;;4.23;2.70;;;;;;;7.01;100.00;96408.44;6040379;23;20881;-77
2022/10/02 01:25:46;;;;;;;5.33;2.30;;;;;;;6.84;100.00;96401.25;6064586;23;20398;-77
2022/10/02 01:28:12;;;;;;;5.57;2.43;;;;;;;6.83;100.00;96391.81;6064254;23;20909;-77
2022/10/02 01:30:42;;;;;;;4.00;2.13;;;;;;;6.85;100.00;96402.78;6040230;23;20442;-77
2022/10/02 01:33:11;;;;;;;3.30;2.10;;;;;;;6.75;100.00;96388.03;6040493;23;21383;-77
2022/10/02 01:35:38;;;;;;;2.03;1.93;;;;;;;6.76;100.00;96386.19;6040156;23;20893;-78
2022/10/02 01:38:09;;;;;;;4.10;2.70;;;;;;;6.61;100.00;96362.91;6064173;23;20414;-77
2022/10/02 01:40:38;;;;;;;3.13;2.50;;;;;;;6.94;100.00;96402.81;6040138;23;20434;-77
2022/10/02 01:43:16;;;;;;;3.47;2.10;;;;;;;6.99;100.00;96406.13;6040614;23;20473;-77
2022/10/02 01:46:15;;;;;;;2.77;2.57;;;;;;;7.04;100.00;96399.94;6113398;23;20403;-77
2022/10/02 01:48:45;;;;;;;2.43;2.23;;;;;;;7.14;100.00;96407.59;6085628;23;20428;-77
2022/10/02 01:51:19;;;;;;;2.47;2.10;;;;;;;7.24;100.00;96403.94;6128143;23;20446;-77
2022/10/02 01:53:55;;;;;;;6.33;2.33;;;;;;;7.34;100.00;96398.38;6154388;23;20400;-78
2022/10/02 01:56:58;;;;;;;3.40;2.53;;;;;;;7.27;100.00;96390.19;6128225;23;20399;-77
2022/10/02 01:59:56;;;;;;;3.07;2.17;;;;;;;7.41;100.00;96407.41;6154338;23;20379;-78
2022/10/02 02:03:01;;;;;;;2.37;2.13;;;;;;;7.38;100.00;96415.91;6128233;23;20394;-77
2022/10/02 02:05:37;;;;;;;10.40;3.13;;;;;;;7.29;100.00;96388.03;6126869;23;20491;-77
2022/10/02 02:08:07;;;;;;;5.90;2.37;;;;;;;7.40;100.00;96400.59;6103751;23;20494;-77
2022/10/02 02:10:44;;;;;;;2.50;2.30;;;;;;;7.31;100.00;96399.00;6103737;23;20400;-77
2022/10/02 02:13:18;;;;;;;3.27;2.60;;;;;;;7.15;100.00;96388.09;6128520;23;20786;-77
2022/10/02 02:16:12;;;;;;;2.10;1.93;;;;;;;7.00;100.00;96362.97;6128169;23;20491;-77
2022/10/02 02:18:46;;;;;;;2.90;2.70;;;;;;;7.29;100.00;96409.81;6127882;23;20459;-77
2022/10/02 02:21:20;;;;;;;6.10;2.43;;;;;;;7.05;100.00;96385.72;6128452;23;20432;-78
2022/10/02 02:23:49;;;;;;;2.37;2.17;;;;;;;6.83;100.00;96362.91;6104054;23;20933;-77
2022/10/02 02:26:18;;;;;;;1.90;1.70;;;;;;;6.88;100.00;96385.66;6154231;23;20380;-77
2022/10/02 02:28:54;;;;;;;3.23;2.93;;;;;;;6.95;100.00;96391.25;6127908;23;20450;-77
2022/10/02 02:31:27;;;;;;;2.30;2.00;;;;;;;7.07;100.00;96408.00;6128053;23;20392;-77
2022/10/02 02:34:01;;;;;;;3.00;2.33;;;;;;;7.11;100.00;96411.59;6127893;23;20933;-77
2022/10/02 02:36:34;;;;;;;3.00;2.17;;;;;;;6.89;100.00;96358.28;6128344;23;20403;-82
2022/10/02 02:39:11;;;;;;;2.10;1.90;;;;;;;7.13;100.00;96397.38;6128191;23;20423;-77
2022/10/02 02:41:43;;;;;;;2.20;2.00;;;;;;;6.96;100.00;96383.06;6127867;23;20440;-77
2022/10/02 02:44:18;;;;;;;5.20;2.20;;;;;;;7.14;100.00;96412.06;6127710;23;20861;-77
2022/10/02 02:47:02;;;;;;;2.93;2.67;;;;;;;7.14;100.00;96412.06;6127736;23;20850;-77
2022/10/02 02:49:44;;;;;;;4.30;1.53;;;;;;;7.07;100.00;96417.75;6128046;23;20396;-77
2022/10/02 02:52:20;;;;;;;2.40;2.20;;;;;;;6.90;100.00;96392.16;6103315;23;20802;-77
2022/10/02 02:54:53;;;;;;;3.40;2.43;;;;;;;7.04;100.00;96416.50;6127689;23;20398;-77
2022/10/02 02:57:27;;;;;;;4.93;2.73;;;;;;;7.04;100.00;96413.88;6127590;23;20424;-77
2022/10/02 02:59:56;;;;;;;2.77;2.57;;;;;;;7.05;100.00;96420.69;6127851;23;20893;-77
2022/10/02 03:02:22;;;;;;;2.80;2.50;;;;;;;7.07;100.00;96423.78;6103207;23;20400;-77
2022/10/02 03:04:49;;;;;;;4.70;2.17;;;;;;;7.18;100.00;96421.69;6127895;23;20958;-77
2022/10/02 03:07:16;;;;;;;3.70;2.77;;;;;;;7.24;100.00;96396.81;6127853;23;20391;-77
2022/10/02 03:10:07;;;;;;;6.03;2.60;;;;;;;6.93;100.00;96357.38;6103369;23;20853;-77
2022/10/02 03:12:44;;;;;;;4.50;3.00;;;;;;;6.95;100.00;96378.91;6127951;23;20373;-77
2022/10/02 03:15:37;;;;;;;4.43;2.77;;;;;;;6.93;100.00;96420.44;6153656;23;20374;-77
2022/10/02 03:18:16;;;;;;;3.83;2.30;;;;;;;6.73;100.00;96398.06;6153416;23;20419;-77
2022/10/02 03:20:46;;;;;;;5.90;3.57;;;;;;;6.87;100.00;96421.66;6153812;23;20973;-77
2022/10/02 03:23:46;;;;;;;4.20;2.37;;;;;;;6.92;100.00;96421.53;6127379;23;20466;-77
2022/10/02 03:26:27;;;;;;;2.50;2.40;;;;;;;6.80;100.00;96398.41;6123733;23;20404;-77
2022/10/02 03:28:58;;;;;;;8.53;2.80;;;;;;;7.01;100.00;96406.59;6127405;23;20427;-77
2022/10/02 03:31:29;;;;;;;3.37;2.97;;;;;;;6.96;100.00;96404.09;6103317;23;20396;-77
2022/10/02 03:33:59;;;;;;;5.53;2.67;;;;;;;7.05;100.00;96404.13;6127235;23;20396;-77
2022/10/02 03:36:26;;;;;;;4.70;2.63;;;;;;;6.98;100.00;96382.78;6127697;23;20384;-77
2022/10/02 03:38:55;;;;;;;4.20;2.57;;;;;;;7.11;100.00;96402.94;6127086;23;20424;-77
2022/10/02 03:41:42;;;;;;;4.40;2.70;;;;;;;7.07;100.00;96392.22;6131962;23;20407;-77
2022/10/02 03:44:09;;;;;;;3.60;3.23;;;;;;;7.06;100.00;96405.69;6127623;23;20866;-77
2022/10/02 03:46:35;;;;;;;2.73;2.53;;;;;;;7.27;100.00;96416.47;6153410;23;20390;-77
2022/10/02 03:49:02;;;;;;;3.20;2.50;;;;;;;7.11;100.00;96406.34;6103181;23;20519;-77
2022/10/02 03:51:29;;;;;;;2.93;2.70;;;;;;;7.06;100.00;96403.81;6127275;23;20395;-77
2022/10/02 03:53:56;;;;;;;2.50;2.30;;;;;;;6.90;100.00;96379.00;6127210;23;20459;-77
2022/10/02 03:56:39;;;;;;;2.13;1.93;;;;;;;6.96;100.00;96390.19;6103094;23;20490;-77
2022/10/02 03:59:16;;;;;;;3.73;2.40;;;;;;;7.21;100.00;96402.69;6153310;23;20761;-77
2022/10/02 04:01:49;;;;;;;3.33;2.47;;;;;;;7.01;100.00;96376.91;6127149;23;20434;-77
2022/10/02 04:04:22;;;;;;;6.77;3.23;;;;;;;7.10;100.00;96391.66;6127093;23;20399;-77
2022/10/02 04:06:59;;;;;;;3.53;3.23;;;;;;;6.93;100.00;96361.84;6127626;23;20479;-76
2022/10/02 04:09:35;;;;;;;4.37;3.90;;;;;;;7.32;100.00;96408.44;6127231;23;20427;-76
2022/10/02 04:12:09;;;;;;;4.03;3.50;;;;;;;7.36;100.00;96419.94;6102982;23;20454;-76
2022/10/02 04:14:54;;;;;;;3.50;3.27;;;;;;;7.01;100.00;96369.03;6127504;23;20391;-76
2022/10/02 04:17:42;;;;;;;4.87;2.97;;;;;;;7.26;100.00;96399.91;6127287;23;20427;-76
2022/10/02 04:20:17;;;;;;;3.37;3.07;;;;;;;7.33;100.00;96420.50;6127283;23;20406;-76
2022/10/02 04:22:53;;;;;;;6.63;3.77;;;;;;;7.25;100.00;96401.00;6127507;23;20439;-77
2022/10/02 04:25:29;;;;;;;8.37;4.60;;;;;;;7.20;100.00;96374.81;6103201;23;20425;-76
2022/10/02 04:28:01;;;;;;;4.63;4.23;;;;;;;7.27;100.00;96383.06;6153197;23;20744;-77
2022/10/02 04:30:29;;;;;;;4.33;3.93;;;;;;;7.30;100.00;96382.44;6127145;23;20404;-76
2022/10/02 04:33:01;;;;;;;4.03;3.70;;;;;;;7.48;100.00;96403.56;6127242;23;20873;-76
2022/10/02 04:35:35;;;;;;;5.67;4.60;;;;;;;7.40;100.00;96390.06;6127140;23;20417;-76
2022/10/02 04:38:08;;;;;;;5.53;4.23;;;;;;;7.48;100.00;96409.63;6126916;23;20427;-76
2022/10/02 04:40:56;;;;;;;4.73;4.37;;;;;;;7.48;100.00;96408.81;6102902;23;20454;-77
2022/10/02 04:43:42;;;;;;;7.57;4.20;;;;;;;7.48;100.00;96417.50;6127192;23;20396;-76
2022/10/02 04:46:11;;;;;;;3.47;3.17;;;;;;;7.48;100.00;96404.34;6127343;23;20471;-77
2022/10/02 04:49:06;;;;;;;6.77;3.97;;;;;;;7.21;100.00;96357.19;6153095;23;20738;-76
2022/10/02 04:51:58;;;;;;;4.40;4.00;;;;;;;7.51;100.00;96406.38;6127987;23;20881;-77
2022/10/02 04:54:44;;;;;;;4.77;4.27;;;;;;;7.52;100.00;96404.53;6128993;23;20454;-76
2022/10/02 04:57:17;;;;;;;3.80;3.50;;;;;;;7.53;100.00;96409.47;6128582;23;20507;-77
2022/10/02 05:00:08;;;;;;;4.80;4.20;;;;;;;7.55;100.00;96415.19;6128884;23;21041;-77
2022/10/02 05:03:17;;;;;;;9.27;4.00;;;;;;;7.55;100.00;96409.94;6128906;23;20424;-77
2022/10/02 05:06:05;;;;;;;3.97;3.53;;;;;;;7.58;100.00;96416.44;6081768;23;20403;-77
2022/10/02 05:08:51;;;;;;;5.00;3.93;;;;;;;7.58;100.00;96419.06;6128936;23;20492;-77
2022/10/02 05:11:36;;;;;;;6.10;4.03;;;;;;;7.64;100.00;96421.28;6155419;23;20815;-77
2022/10/02 05:14:21;;;;;;;5.67;4.90;;;;;;;7.63;100.00;96426.84;6128938;23;20431;-76
2022/10/02 05:17:03;;;;;;;5.10;4.50;;;;;;;7.68;100.00;96422.22;6128820;23;20398;-77
2022/10/02 05:19:40;;;;;;;6.30;4.47;;;;;;;8.09;100.00;96430.84;6129412;23;20396;-77
2022/10/02 05:22:31;;;;;;;10.70;4.90;;;;;;;8.16;100.00;96423.28;6128714;23;20437;-77
2022/10/02 05:25:14;;;;;;;13.10;5.97;;;;;;;8.13;100.00;96424.63;6154881;23;20391;-76
2022/10/02 05:28:06;;;;;;;6.67;3.90;;;;;;;8.25;100.00;96424.03;6128724;23;20517;-76
2022/10/02 05:30:55;;;;;;;5.30;3.60;;;;;;;8.14;100.00;96425.41;6155141;23;20422;-76
2022/10/02 05:33:54;;;;;;;6.97;5.50;;;;;;;8.32;100.00;96415.69;6128371;23;20414;-76
2022/10/02 05:36:58;;;;;;;4.70;4.30;;;;;;;8.21;100.00;96408.09;6123448;23;20410;-76
2022/10/02 05:39:35;;;;;;;8.33;7.03;;;;;;;8.38;100.00;96419.75;6130132;23;20366;-76
2022/10/02 05:42:22;;;;;;;13.83;9.63;;;;;;;8.68;100.00;96421.47;6129207;23;20478;-76
2022/10/02 05:44:58;;;;;;;18.70;8.37;;;;;;;8.69;100.00;96419.59;6104261;23;21131;-76
2022/10/02 05:47:29;;;;;;;7.37;6.67;;;;;;;8.57;100.00;96421.00;6128539;23;20426;-76
2022/10/02 05:50:02;;;;;;;14.10;5.90;;;;;;;8.61;100.00;96423.78;6128879;23;20372;-76
2022/10/02 05:52:39;;;;;;;9.17;5.03;;;;;;;8.88;100.00;96406.88;6128488;23;20846;-76
2022/10/02 05:55:18;;;;;;;4.33;4.00;;;;;;;9.10;100.00;96417.22;6104043;23;20404;-76
2022/10/02 05:57:51;;;;;;;9.97;4.20;;;;;;;8.80;100.00;96370.72;6128221;23;20423;-76
2022/10/02 06:00:33;;;;;;;13.00;5.63;;;;;;;9.37;100.00;96418.69;6128153;23;20551;-75
2022/10/02 06:03:14;;;;;;;13.10;4.20;;;;;;;9.44;100.00;96426.88;6128051;23;20399;-75
2022/10/02 06:05:59;;;;;;;12.17;4.97;;;;;;;9.48;100.00;96432.31;6128095;23;20390;-75
2022/10/02 06:08:57;;;;;;;10.27;4.30;;;;;;;9.51;100.00;96423.00;6128163;23;20427;-75
2022/10/02 06:11:32;;;;;;;12.43;4.30;;;;;;;9.25;100.00;96388.78;6123800;23;20407;-75
2022/10/02 06:14:22;;;;;;;5.43;4.20;;;;;;;9.38;100.00;96404.41;6128111;23;20410;-75
2022/10/02 06:16:56;;;;;;;9.90;5.33;;;;;;;9.39;100.00;96399.91;6128168;23;20411;-75
2022/10/02 06:19:51;;;;;;;8.50;7.70;;;;;;;9.63;100.00;96436.31;6154241;23;20434;-76
2022/10/02 06:22:20;;;;;;;3.50;3.30;;;;;;;9.54;100.00;96425.78;6154134;23;20408;-75
2022/10/02 06:24:52;;;;;;;6.23;4.23;;;;;;;9.72;100.00;96443.09;6154462;23;20388;-75
2022/10/02 06:27:30;;;;;;;9.40;5.83;;;;;;;9.76;100.00;96443.25;6128182;23;20721;-75
2022/10/02 06:30:01;;;;;;;11.80;5.70;;;;;;;9.80;100.00;96446.78;6128414;23;20374;-75
2022/10/02 06:32:47;;;;;;;15.23;12.77;;;;;;;9.45;100.00;96385.44;6128098;23;20490;-75
2022/10/02 06:35:17;;;;;;;11.60;5.77;;;;;;;9.65;100.00;96423.56;6128408;23;20373;-75
2022/10/02 06:37:49;;;;;;;10.30;4.57;;;;;;;9.83;100.00;96440.09;6128140;23;20400;-75
2022/10/02 06:40:37;;;;;;;7.73;4.13;;;;;;;9.59;100.00;96398.41;6154054;23;20831;-75
2022/10/02 06:43:21;;;;;;;11.20;9.07;;;;;;;9.86;100.00;96442.88;6103490;23;20396;-75
2022/10/02 06:46:07;;;;;;;10.80;4.47;;;;;;;9.91;100.00;96437.44;6103599;23;20400;-75
2022/10/02 06:48:57;;;;;;;8.40;4.00;;;;;;;9.95;100.00;96443.59;6127714;23;20419;-75
2022/10/02 06:51:29;;;;;;;9.50;4.07;;;;;;;9.94;100.00;96436.78;6127737;23;21100;-76
2022/10/02 06:54:28;;;;;;;7.03;4.33;;;;;;;9.90;100.00;96433.25;6127865;23;20391;-75
2022/10/02 06:57:11;;;;;;;5.17;3.63;;;;;;;9.94;100.00;96434.13;6127675;23;20426;-76
2022/10/02 06:59:41;;;;;;;5.33;3.70;;;;;;;10.04;100.00;96449.63;6103706;23;20480;-76
2022/10/02 07:02:27;;;;;;;9.27;3.97;;;;;;;9.64;100.00;96385.84;6153675;23;20452;-76
2022/10/02 07:05:20;;;;;;;6.23;4.90;;;;;;;10.00;100.00;96445.28;6127889;23;20373;-76
2022/10/02 07:08:10;;;;;;;9.93;4.73;;;;;;;10.06;100.00;96436.88;6103256;23;20426;-76
2022/10/02 07:11:03;;;;;;;15.40;4.20;;;;;;;9.94;100.00;96423.56;6153586;23;20380;-76
2022/10/02 07:13:36;;;;;;;10.53;7.67;;;;;;;10.12;100.00;96447.25;6127845;23;20388;-76
2022/10/02 07:16:12;;;;;;;8.67;4.23;;;;;;;9.61;100.00;96359.28;6127624;23;20506;-76
2022/10/02 07:18:42;;;;;;;13.30;6.17;;;;;;;10.14;100.00;96447.69;6127381;23;20435;-76
2022/10/02 07:21:17;;;;;;;9.70;5.67;;;;;;;10.16;100.00;96453.47;6153577;23;20415;-76
2022/10/02 07:24:03;;;;;;;13.10;5.90;;;;;;;9.89;100.00;96409.78;6127614;23;20843;-76
2022/10/02 07:26:46;;;;;;;9.07;5.13;;;;;;;10.18;100.00;96446.75;6127267;23;20418;-76
2022/10/02 07:30:00;;;;;;;7.00;3.60;;;;;;;10.19;100.00;96468.66;6127509;23;20422;-76
2022/10/02 07:32:58;;;;;;;9.87;4.47;;;;;;;10.15;100.00;96462.44;6063264;23;20380;-76
2022/10/02 07:35:25;;;;;;;8.13;3.70;;;;;;;10.22;100.00;96471.47;6127443;23;20406;-76
2022/10/02 07:38:01;;;;;;;6.00;4.23;;;;;;;10.00;100.00;96440.00;6153350;23;20498;-76
2022/10/02 07:40:50;;;;;;;7.53;3.83;;;;;;;10.28;100.00;96466.75;6127586;23;20377;-76
2022/10/02 07:43:35;;;;;;;11.80;4.37;;;;;;;10.34;100.00;96460.97;6153369;23;20423;-76
2022/10/02 07:46:25;;;;;;;6.97;3.97;;;;;;;10.30;100.00;96456.66;6103136;23;20479;-76
2022/10/02 07:49:35;;;;;;;4.83;4.23;;;;;;;10.38;100.00;96465.63;6115804;23;20423;-76
2022/10/02 07:52:20;;;;;;;7.27;4.90;;;;;;;10.45;100.00;96464.03;6127639;23;20718;-76
2022/10/02 07:55:02;;;;;;;7.50;4.37;;;;;;;10.34;100.00;96433.78;6127460;23;20400;-76
2022/10/02 07:57:48;;;;;;;10.53;4.07;;;;;;;10.14;100.00;96413.34;6127195;23;20415;-76
2022/10/02 08:00:17;;;;;;;8.43;3.57;;;;;;;10.49;100.00;96464.91;6102990;23;20396;-76
2022/10/02 08:03:13;;;;;;;6.77;4.10;;;;;;;10.55;100.00;96468.94;6127298;23;20432;-76
2022/10/02 08:05:51;;;;;;;5.30;3.87;;;;;;;10.57;100.00;96471.25;6127205;23;20447;-76
2022/10/02 08:08:38;;;;;;;8.60;3.30;;;;;;;10.43;100.00;96452.22;6102840;23;20738;-76
2022/10/02 08:11:11;;;;;;;9.83;3.43;;;;;;;10.65;100.00;96475.69;6102981;23;20400;-76
2022/10/02 08:13:44;;;;;;;8.20;3.43;;;;;;;10.60;100.00;96471.38;6127056;23;20416;-76
2022/10/02 08:16:15;;;;;;;7.63;3.50;;;;;;;10.54;100.00;96461.31;6127152;23;20855;-76
2022/10/02 08:18:54;;;;;;;12.90;3.77;;;;;;;10.50;100.00;96461.19;6127283;23;20463;-76
2022/10/02 08:21:26;;;;;;;7.23;4.83;;;;;;;10.65;100.00;96481.75;6127318;23;20442;-76
2022/10/02 08:24:05;;;;;;;10.33;4.20;;;;;;;10.68;100.00;96482.97;6153315;23;20451;-76
2022/10/02 08:26:46;;;;;;;6.27;4.77;;;;;;;10.41;100.00;96441.94;6128039;23;20520;-77
2022/10/02 08:29:22;;;;;;;12.00;5.37;;;;;;;10.71;100.00;96484.22;6155145;23;20495;-76
2022/10/02 08:31:53;;;;;;;12.87;5.73;;;;;;;10.56;100.00;96467.06;6128983;23;20383;-76
2022/10/02 08:34:22;;;;;;;5.43;3.50;;;;;;;10.70;100.00;96480.81;6155208;23;20467;-77
2022/10/02 08:37:07;;;;;;;6.40;3.80;;;;;;;10.69;100.00;96479.25;6104787;23;20431;-76
2022/10/02 08:39:41;;;;;;;10.20;3.93;;;;;;;10.70;100.00;96485.31;6129200;23;20753;-77
2022/10/02 08:42:39;;;;;;;6.70;3.37;;;;;;;10.68;100.00;96482.97;6129152;23;20494;-76
2022/10/02 08:45:33;;;;;;;8.43;5.20;;;;;;;10.68;100.00;96482.97;6129275;23;20396;-76
2022/10/02 08:48:22;;;;;;;5.07;3.83;;;;;;;10.68;100.00;96485.63;6128856;23;20426;-76
2022/10/02 08:51:24;;;;;;;8.97;8.10;;;;;;;10.72;100.00;96477.84;6155211;23;20373;-76
2022/10/02 08:54:12;;;;;;;7.53;5.30;;;;;;;10.73;100.00;96479.38;6155019;23;20411;-76
2022/10/02 08:57:16;;;;;;;8.13;4.20;;;;;;;10.77;100.00;96474.97;6128752;23;20403;-76
2022/10/02 09:00:13;;;;;;;4.90;3.97;;;;;;;10.80;100.00;96476.97;6128972;23;20407;-76
2022/10/02 09:03:17;;;;;;;6.17;5.53;;;;;;;10.81;100.00;96474.00;6129127;23;20422;-75
2022/10/02 09:05:50;;;;;;;9.70;4.20;;;;;;;10.81;100.00;96471.34;6128541;23;20411;-76
2022/10/02 09:08:49;;;;;;;14.73;5.20;;;;;;;10.85;100.00;96468.88;6128749;23;20518;-76
2022/10/02 09:11:25;;;;;;;4.10;3.70;;;;;;;10.83;100.00;96479.78;6128660;23;20455;-76
2022/10/02 09:14:35;;;;;;;4.80;4.00;;;;;;;10.86;100.00;96475.69;6128862;23;20892;-75
2022/10/02 09:17:29;;;;;;;8.83;4.20;;;;;;;10.85;100.00;96467.00;6128711;23;20376;-76
2022/10/02 09:20:27;;;;;;;7.07;6.27;;;;;;;10.83;100.00;96469.19;6154665;23;20791;-75
2022/10/02 09:23:02;;;;;;;5.80;5.30;;;;;;;10.83;100.00;96471.06;6154562;23;20980;-75
2022/10/02 09:26:06;;;;;;;9.27;4.47;;;;;;;10.79;100.00;96467.50;6128468;23;20392;-76
2022/10/02 09:28:55;;;;;;;7.60;4.60;;;;;;;10.79;100.00;96462.97;6128779;23;20411;-75
2022/10/02 09:31:42;;;;;;;7.20;5.03;;;;;;;10.84;100.00;96464.69;6128907;23;20854;-75
2022/10/02 09:34:35;;;;;;;5.73;2.90;;;;;;;10.62;100.00;96439.31;6128730;23;20376;-76
2022/10/02 09:37:33;;;;;;;4.00;3.60;;;;;;;10.81;100.00;96467.94;6103702;23;20396;-76
2022/10/02 09:40:18;;;;;;;6.40;4.03;;;;;;;10.78;100.00;96466.72;6128388;23;20435;-76
2022/10/02 09:43:03;;;;;;;9.23;4.90;;;;;;;10.78;100.00;96463.31;6128981;23;20471;-76
2022/10/02 09:45:52;;;;;;;12.77;10.67;;;;;;;10.82;100.00;96469.50;6128956;23;20396;-75
2022/10/02 09:48:43;;;;;;;3.93;2.67;;;;;;;10.85;100.00;96471.50;6104606;23;20432;-76
2022/10/02 09:51:48;;;;;;;5.57;4.30;;;;;;;10.84;100.00;96462.03;6128850;23;20843;-76
2022/10/02 09:54:23;;;;;;;6.93;6.40;;;;;;;10.82;100.00;96461.59;6127932;23;20404;-76
2022/10/02 09:57:18;;;;;;;8.40;7.80;;;;;;;10.81;100.00;96458.13;6104167;23;20406;-76
2022/10/02 09:59:54;;;;;;;5.53;4.97;;;;;;;10.82;100.00;96462.34;6128470;23;20732;-75
2022/10/02 10:02:58;;;;;;;8.00;3.73;;;;;;;10.79;100.00;96460.34;6154262;23;20403;-76
2022/10/02 10:06:02;;;;;;;5.27;4.87;;;;;;;10.78;100.00;96458.78;6128228;23;20498;-76
2022/10/02 10:08:54;;;;;;;4.53;3.10;;;;;;;10.82;100.00;96453.66;6154412;23;20400;-77
2022/10/02 10:11:40;;;;;;;6.60;6.00;;;;;;;10.82;100.00;96466.88;6128521;23;20411;-76
2022/10/02 10:14:17;;;;;;;4.77;3.90;;;;;;;10.56;100.00;96412.31;6128443;23;20396;-76
2022/10/02 10:17:22;;;;;;;6.90;5.33;;;;;;;10.79;100.00;96449.75;6104198;23;20415;-76
2022/10/02 10:19:58;;;;;;;6.03;5.60;;;;;;;10.79;100.00;96454.28;6039827;23;20832;-76
2022/10/02 10:22:37;;;;;;;3.30;3.00;;;;;;;10.79;100.00;96439.19;6142712;23;20478;-77
2022/10/02 10:25:32;;;;;;;4.03;3.10;;;;;;;10.78;100.00;96439.50;6128153;23;20730;-76
2022/10/02 10:28:02;;;;;;;2.60;2.40;;;;;;;10.78;100.00;96444.78;6154507;23;20495;-76
2022/10/02 10:31:00;;;;;;;3.83;3.20;;;;;;;10.78;100.00;96448.22;6154462;23;20369;-76
2022/10/02 10:33:32;;;;;;;5.93;2.80;;;;;;;10.80;100.00;96446.00;6128797;23;20471;-77
2022/10/02 10:38:31;;;;;;;4.80;2.70;;;;;;;10.77;100.00;96436.09;6128467;23;20858;-77
2022/10/02 10:39:12;;;;;;;3.33;1.93;;;;;;;10.80;100.00;96437.31;6128063;23;20518;-76
2022/10/02 10:42:25;;;;;;;3.00;2.07;;;;;;;10.78;100.00;96431.56;6128066;23;20499;-76
2022/10/02 10:45:21;;;;;;;4.20;2.53;;;;;;;10.87;100.00;96437.56;6127757;23;20442;-77
2022/10/02 10:48:09;;;;;;;2.60;2.40;;;;;;;10.92;100.00;96438.13;6127431;23;20478;-77
2022/10/02 10:50:38;;;;;;;5.07;2.90;;;;;;;10.95;100.00;96434.06;6153884;23;20817;-77
2022/10/02 10:53:57;;;;;;;6.37;4.07;;;;;;;10.98;100.00;96430.78;6127984;23;20431;-77
2022/10/02 10:56:32;;;;;;;4.77;2.40;;;;;;;11.10;100.00;96427.41;6058017;23;20454;-77
2022/10/02 10:58:58;;;;;;;3.83;2.80;;;;;;;11.17;100.00;96427.63;6127847;23;20400;-77
2022/10/02 11:01:36;;;;;;;5.33;3.37;;;;;;;11.22;100.00;96419.50;6127488;23;20406;-77
2022/10/02 11:04:37;;;;;;;2.03;1.90;;;;;;;11.23;100.00;96421.03;6103441;23;20435;-77
2022/10/02 11:07:16;;;;;;;3.73;2.17;;;;;;;11.28;100.00;96418.19;6081719;23;20412;-77
2022/10/02 11:09:52;;;;;;;1.67;1.40;;;;;;;11.27;100.00;96421.94;6127964;23;20407;-77
2022/10/02 11:12:37;;;;;;;4.03;2.40;;;;;;;11.35;100.00;96434.31;6128396;23;20391;-77
2022/10/02 11:15:17;;;;;;;3.87;1.73;;;;;;;11.41;100.00;96425.03;6104379;23;20855;-78
2022/10/02 11:17:57;;;;;;;5.43;2.40;;;;;;;11.37;100.00;96418.88;6128320;23;20462;-78
2022/10/02 11:20:28;;;;;;;5.00;2.40;;;;;;;11.33;100.00;96433.06;6154557;23;20459;-78
2022/10/02 11:22:58;;;;;;;1.30;1.20;;;;;;;11.23;100.00;96428.97;6154135;23;20451;-78
2022/10/02 11:25:31;;;;;;;1.40;1.30;;;;;;;11.25;100.00;96426.78;6104179;23;20410;-78
2022/10/02 11:28:27;;;;;;;1.80;1.63;;;;;;;11.20;100.00;96424.31;6128124;23;20483;-78
2022/10/02 11:31:31;;;;;;;3.00;1.30;;;;;;;11.18;100.00;96422.00;6154233;23;20396;-78
2022/10/02 11:34:46;;;;;;;1.57;1.07;;;;;;;11.19;100.00;96423.53;6127662;23;20396;-78
2022/10/02 11:37:50;;;;;;;2.53;1.77;;;;;;;11.22;100.00;96420.28;6146585;23;20439;-78
2022/10/02 11:40:32;;;;;;;3.57;1.37;;;;;;;11.25;100.00;96418.84;6128343;23;20396;-78
2022/10/02 11:43:13;;;;;;;1.27;1.17;;;;;;;11.32;100.00;96419.06;6128532;23;20483;-79
2022/10/02 11:46:11;;;;;;;0.80;0.80;;;;;;;11.27;100.00;96423.81;6104123;23;20424;-78
2022/10/02 11:49:06;;;;;;;1.37;1.13;;;;;;;11.13;100.00;96402.94;6163831;23;20396;-79
2022/10/02 11:51:58;;;;;;;1.20;1.07;;;;;;;11.40;100.00;96428.03;6137339;23;20403;-79
2022/10/02 11:54:32;;;;;;;1.23;1.10;;;;;;;11.41;100.00;96426.91;6138544;23;20436;-79
2022/10/02 11:57:15;;;;;;;3.63;1.27;;;;;;;11.29;100.00;96403.06;6137127;23;20443;-79
2022/10/02 11:59:54;;;;;;;2.00;1.27;;;;;;;11.46;100.00;96429.34;6163858;23;20368;-79
2022/10/02 12:02:40;;;;;;;1.23;1.00;;;;;;;11.50;100.00;96435.53;6128466;23;21004;-79
2022/10/02 12:05:43;;;;;;;2.43;1.40;;;;;;;11.44;100.00;96429.66;6128758;23;20435;-79
2022/10/02 12:08:52;;;;;;;4.30;1.20;;;;;;;11.37;100.00;96428.69;6101671;23;20500;-79
2022/10/02 12:11:38;;;;;;;1.30;1.20;;;;;;;11.14;100.00;96392.00;6130135;23;20444;-79
2022/10/02 12:14:53;;;;;;;1.20;1.10;;;;;;;11.35;100.00;96417.63;6106617;23;20851;-79
2022/10/02 12:17:31;;;;;;;1.10;1.00;;;;;;;11.36;100.00;96419.19;6065767;23;20434;-79
2022/10/02 12:29:44;;;;;;;1.70;1.60;;;;;;;11.24;100.00;96436.59;6128645;23;20420;-79
2022/10/02 12:32:25;;;;;;;1.40;1.30;;;;;;;10.91;100.00;96409.34;6103674;23;20843;-78
2022/10/02 12:34:58;;;;;;;1.43;1.23;;;;;;;11.13;100.00;96438.09;6153823;23;20396;-78
2022/10/02 12:37:28;;;;;;;1.30;1.17;;;;;;;11.12;100.00;96435.78;6127602;23;20404;-78
2022/10/02 12:40:22;;;;;;;1.00;0.80;;;;;;;11.09;100.00;96431.16;6127209;23;20494;-78
2022/10/02 12:43:08;;;;;;;1.10;1.00;;;;;;;11.05;100.00;96436.31;6127553;23;20929;-78
2022/10/02 12:45:53;;;;;;;2.20;1.27;;;;;;;11.00;100.00;96425.16;6127046;23;20431;-78
2022/10/02 12:48:37;;;;;;;2.70;2.33;;;;;;;11.10;100.00;96424.75;6128113;23;20407;-78